sensor_id;sensor_type;location;lat;lon;timestamp;temperature;humidity
702;DHT22;334;48.808;9.222;2022-09-13T00:00:32;19.90;1.00
702;DHT22;334;48.808;9.222;2022-09-13T00:01:33;19.90;1.00
702;DHT22;334;48.808;9.222;2022-09-13T00:02:35;19.80;1.00
702;DHT22;334;48.808;9.222;2022-09-13T00:03:37;19.80;1.00
702;DHT22;334;48.808;9.222;2022-09-13T00:04:39;19.80;1.00
702;DHT22;334;48.808;9.222;2022-09-13T00:05:41;19.80;1.00
702;DHT22;334;48.808;9.222;2022-09-13T00:06:43;19.80;1.00
702;DHT22;334;48.808;9.222;2022-09-13T00:07:45;19.80;1.00
702;DHT22;334;48.808;9.222;2022-09-13T00:08:47;19.90;1.00
702;DHT22;334;48.808;9.222;2022-09-13T00:09:49;19.80;1.00
702;DHT22;334;48.808;9.222;2022-09-13T00:10:51;19.90;1.00
702;DHT22;334;48.808;9.222;2022-09-13T00:11:53;19.80;1.00
702;DHT22;334;48.808;9.222;2022-09-13T00:12:55;19.90;1.00
702;DHT22;334;48.808;9.222;2022-09-13T00:13:57;19.90;1.00
702;DHT22;334;48.808;9.222;2022-09-13T00:14:59;19.90;1.00
702;DHT22;334;48.808;9.222;2022-09-13T00:16:01;19.90;1.00
702;DHT22;334;48.808;9.222;2022-09-13T00:17:04;19.90;1.00
702;DHT22;334;48.808;9.222;2022-09-13T00:18:06;19.90;1.00
702;DHT22;334;48.808;9.222;2022-09-13T00:19:08;19.90;1.00
702;DHT22;334;48.808;9.222;2022-09-13T00:20:10;19.90;1.00
702;DHT22;334;48.808;9.222;2022-09-13T00:21:14;19.90;1.00
702;DHT22;334;48.808;9.222;2022-09-13T00:22:17;19.90;1.00
702;DHT22;334;48.808;9.222;2022-09-13T00:23:18;19.90;1.00
702;DHT22;334;48.808;9.222;2022-09-13T00:24:20;19.90;1.00
702;DHT22;334;48.808;9.222;2022-09-13T00:25:22;19.90;1.00
702;DHT22;334;48.808;9.222;2022-09-13T00:26:26;19.80;1.00
702;DHT22;334;48.808;9.222;2022-09-13T00:27:29;19.90;1.00
702;DHT22;334;48.808;9.222;2022-09-13T00:28:31;19.90;1.00
702;DHT22;334;48.808;9.222;2022-09-13T00:29:33;19.90;1.00
702;DHT22;334;48.808;9.222;2022-09-13T00:30:35;19.80;1.00
702;DHT22;334;48.808;9.222;2022-09-13T00:31:37;19.80;1.00
702;DHT22;334;48.808;9.222;2022-09-13T00:32:39;19.80;1.00
702;DHT22;334;48.808;9.222;2022-09-13T00:33:40;19.80;1.00
702;DHT22;334;48.808;9.222;2022-09-13T00:34:43;19.80;1.00
702;DHT22;334;48.808;9.222;2022-09-13T00:35:45;19.80;1.00
702;DHT22;334;48.808;9.222;2022-09-13T00:36:47;19.80;1.00
702;DHT22;334;48.808;9.222;2022-09-13T00:37:49;19.80;1.00
702;DHT22;334;48.808;9.222;2022-09-13T00:38:51;19.80;1.00
702;DHT22;334;48.808;9.222;2022-09-13T00:39:53;19.80;1.00
702;DHT22;334;48.808;9.222;2022-09-13T00:40:55;19.80;1.00
702;DHT22;334;48.808;9.222;2022-09-13T00:41:57;19.80;1.00
702;DHT22;334;48.808;9.222;2022-09-13T00:42:59;19.70;1.00
702;DHT22;334;48.808;9.222;2022-09-13T00:44:03;19.70;1.00
702;DHT22;334;48.808;9.222;2022-09-13T00:46:25;19.70;1.00
702;DHT22;334;48.808;9.222;2022-09-13T00:47:42;19.70;1.00
702;DHT22;334;48.808;9.222;2022-09-13T00:48:46;19.70;1.00
702;DHT22;334;48.808;9.222;2022-09-13T00:49:54;19.70;1.00
702;DHT22;334;48.808;9.222;2022-09-13T00:50:57;19.70;1.00
702;DHT22;334;48.808;9.222;2022-09-13T00:52:02;19.70;1.00
702;DHT22;334;48.808;9.222;2022-09-13T00:54:21;19.60;1.00
702;DHT22;334;48.808;9.222;2022-09-13T00:55:34;19.60;1.00
702;DHT22;334;48.808;9.222;2022-09-13T00:56:42;19.60;1.00
702;DHT22;334;48.808;9.222;2022-09-13T00:57:45;19.60;1.00
702;DHT22;334;48.808;9.222;2022-09-13T00:58:55;19.50;1.00
702;DHT22;334;48.808;9.222;2022-09-13T01:00:18;19.50;1.00
702;DHT22;334;48.808;9.222;2022-09-13T01:01:22;19.50;1.00
702;DHT22;334;48.808;9.222;2022-09-13T01:02:27;19.50;1.00
702;DHT22;334;48.808;9.222;2022-09-13T01:03:31;19.50;1.00
702;DHT22;334;48.808;9.222;2022-09-13T01:04:35;19.50;1.00
702;DHT22;334;48.808;9.222;2022-09-13T01:05:46;19.50;1.00
702;DHT22;334;48.808;9.222;2022-09-13T01:06:53;19.50;1.00
702;DHT22;334;48.808;9.222;2022-09-13T01:07:58;19.50;1.00
702;DHT22;334;48.808;9.222;2022-09-13T01:09:02;19.50;1.00
702;DHT22;334;48.808;9.222;2022-09-13T01:10:06;19.50;1.00
702;DHT22;334;48.808;9.222;2022-09-13T01:11:12;19.50;1.00
702;DHT22;334;48.808;9.222;2022-09-13T01:12:29;19.50;1.00
702;DHT22;334;48.808;9.222;2022-09-13T01:13:35;19.40;1.00
702;DHT22;334;48.808;9.222;2022-09-13T01:14:37;19.40;1.00
702;DHT22;334;48.808;9.222;2022-09-13T01:15:40;19.40;1.00
702;DHT22;334;48.808;9.222;2022-09-13T01:16:42;19.40;1.00
702;DHT22;334;48.808;9.222;2022-09-13T01:17:50;19.40;1.00
702;DHT22;334;48.808;9.222;2022-09-13T01:18:53;19.40;1.00
702;DHT22;334;48.808;9.222;2022-09-13T01:19:55;19.40;1.00
702;DHT22;334;48.808;9.222;2022-09-13T01:21:24;19.30;1.00
702;DHT22;334;48.808;9.222;2022-09-13T01:34:11;19.20;1.00
702;DHT22;334;48.808;9.222;2022-09-13T01:35:40;19.20;1.00
702;DHT22;334;48.808;9.222;2022-09-13T01:36:53;19.10;1.00
702;DHT22;334;48.808;9.222;2022-09-13T01:38:06;19.10;1.00
702;DHT22;334;48.808;9.222;2022-09-13T01:39:51;19.10;1.00
702;DHT22;334;48.808;9.222;2022-09-13T01:41:20;19.10;1.00
702;DHT22;334;48.808;9.222;2022-09-13T01:45:16;19.10;1.00
702;DHT22;334;48.808;9.222;2022-09-13T01:46:29;19.00;1.00
702;DHT22;334;48.808;9.222;2022-09-13T01:48:06;19.00;1.00
702;DHT22;334;48.808;9.222;2022-09-13T01:49:31;19.00;1.00
702;DHT22;334;48.808;9.222;2022-09-13T01:50:46;19.00;1.00
702;DHT22;334;48.808;9.222;2022-09-13T01:52:03;19.00;1.00
702;DHT22;334;48.808;9.222;2022-09-13T01:55:41;18.90;1.00
702;DHT22;334;48.808;9.222;2022-09-13T01:59:52;18.90;1.00
702;DHT22;334;48.808;9.222;2022-09-13T02:01:06;18.90;1.00
702;DHT22;334;48.808;9.222;2022-09-13T02:02:19;18.90;1.00
702;DHT22;334;48.808;9.222;2022-09-13T02:03:50;18.90;1.00
702;DHT22;334;48.808;9.222;2022-09-13T02:06:19;18.90;1.00
702;DHT22;334;48.808;9.222;2022-09-13T02:07:30;18.90;1.00
702;DHT22;334;48.808;9.222;2022-09-13T02:08:43;18.90;1.00
702;DHT22;334;48.808;9.222;2022-09-13T02:09:53;18.80;1.00
702;DHT22;334;48.808;9.222;2022-09-13T02:11:07;18.90;1.00
702;DHT22;334;48.808;9.222;2022-09-13T02:12:30;18.80;1.00
702;DHT22;334;48.808;9.222;2022-09-13T02:13:36;18.80;1.00
702;DHT22;334;48.808;9.222;2022-09-13T02:14:42;18.80;1.00
702;DHT22;334;48.808;9.222;2022-09-13T02:15:47;18.80;1.00
702;DHT22;334;48.808;9.222;2022-09-13T02:18:34;18.80;1.00
702;DHT22;334;48.808;9.222;2022-09-13T02:19:58;18.80;1.00
702;DHT22;334;48.808;9.222;2022-09-13T02:21:48;18.80;1.00
702;DHT22;334;48.808;9.222;2022-09-13T02:22:33;18.80;1.00
702;DHT22;334;48.808;9.222;2022-09-13T02:24:05;18.80;1.00
702;DHT22;334;48.808;9.222;2022-09-13T02:25:16;18.70;1.00
702;DHT22;334;48.808;9.222;2022-09-13T02:26:19;18.70;1.00
702;DHT22;334;48.808;9.222;2022-09-13T02:27:28;18.70;1.00
702;DHT22;334;48.808;9.222;2022-09-13T02:28:39;18.70;1.00
702;DHT22;334;48.808;9.222;2022-09-13T02:29:45;18.70;1.00
702;DHT22;334;48.808;9.222;2022-09-13T02:30:50;18.60;1.00
702;DHT22;334;48.808;9.222;2022-09-13T02:32:02;18.60;1.00
702;DHT22;334;48.808;9.222;2022-09-13T02:33:18;18.70;1.00
702;DHT22;334;48.808;9.222;2022-09-13T02:34:23;18.70;1.00
702;DHT22;334;48.808;9.222;2022-09-13T02:35:37;18.70;1.00
702;DHT22;334;48.808;9.222;2022-09-13T02:36:40;18.70;1.00
702;DHT22;334;48.808;9.222;2022-09-13T02:37:48;18.70;1.00
702;DHT22;334;48.808;9.222;2022-09-13T02:39:01;18.70;1.00
702;DHT22;334;48.808;9.222;2022-09-13T02:40:07;18.70;1.00
702;DHT22;334;48.808;9.222;2022-09-13T02:41:24;18.60;1.00
702;DHT22;334;48.808;9.222;2022-09-13T02:43:40;18.60;1.00
702;DHT22;334;48.808;9.222;2022-09-13T02:44:50;18.50;1.00
702;DHT22;334;48.808;9.222;2022-09-13T02:46:08;18.50;1.00
702;DHT22;334;48.808;9.222;2022-09-13T02:48:46;18.50;1.00
702;DHT22;334;48.808;9.222;2022-09-13T02:52:50;18.60;1.00
702;DHT22;334;48.808;9.222;2022-09-13T02:55:25;18.50;1.00
702;DHT22;334;48.808;9.222;2022-09-13T02:56:42;18.50;1.00
702;DHT22;334;48.808;9.222;2022-09-13T02:57:55;18.50;1.00
702;DHT22;334;48.808;9.222;2022-09-13T02:59:19;18.50;1.00
702;DHT22;334;48.808;9.222;2022-09-13T03:00:22;18.50;1.00
702;DHT22;334;48.808;9.222;2022-09-13T03:01:24;18.40;1.00
702;DHT22;334;48.808;9.222;2022-09-13T03:02:30;18.40;1.00
702;DHT22;334;48.808;9.222;2022-09-13T03:03:33;18.40;1.00
702;DHT22;334;48.808;9.222;2022-09-13T03:04:35;18.30;1.00
702;DHT22;334;48.808;9.222;2022-09-13T03:05:38;18.50;1.00
702;DHT22;334;48.808;9.222;2022-09-13T03:06:40;18.30;1.00
702;DHT22;334;48.808;9.222;2022-09-13T03:07:42;18.30;1.00
702;DHT22;334;48.808;9.222;2022-09-13T03:08:44;18.20;1.00
702;DHT22;334;48.808;9.222;2022-09-13T03:09:51;18.20;1.00
702;DHT22;334;48.808;9.222;2022-09-13T03:14:55;18.30;1.00
702;DHT22;334;48.808;9.222;2022-09-13T03:16:05;18.30;1.00
702;DHT22;334;48.808;9.222;2022-09-13T03:17:17;18.30;1.00
702;DHT22;334;48.808;9.222;2022-09-13T03:18:47;18.30;1.00
702;DHT22;334;48.808;9.222;2022-09-13T03:20:24;18.30;1.00
702;DHT22;334;48.808;9.222;2022-09-13T03:21:57;18.30;1.00
702;DHT22;334;48.808;9.222;2022-09-13T03:23:16;18.40;1.00
702;DHT22;334;48.808;9.222;2022-09-13T03:24:48;18.40;1.00
702;DHT22;334;48.808;9.222;2022-09-13T03:30:10;18.30;1.00
702;DHT22;334;48.808;9.222;2022-09-13T03:31:27;18.30;1.00
702;DHT22;334;48.808;9.222;2022-09-13T03:32:49;18.20;1.00
702;DHT22;334;48.808;9.222;2022-09-13T03:36:31;18.10;1.00
702;DHT22;334;48.808;9.222;2022-09-13T03:40:46;18.10;1.20
702;DHT22;334;48.808;9.222;2022-09-13T03:41:54;18.10;1.40
702;DHT22;334;48.808;9.222;2022-09-13T03:44:18;18.10;1.20
702;DHT22;334;48.808;9.222;2022-09-13T03:45:26;18.00;1.20
702;DHT22;334;48.808;9.222;2022-09-13T03:46:38;18.00;1.20
702;DHT22;334;48.808;9.222;2022-09-13T03:47:42;18.10;1.50
702;DHT22;334;48.808;9.222;2022-09-13T03:48:45;18.10;1.10
702;DHT22;334;48.808;9.222;2022-09-13T03:49:48;18.10;1.00
702;DHT22;334;48.808;9.222;2022-09-13T03:50:52;18.20;1.00
702;DHT22;334;48.808;9.222;2022-09-13T03:51:54;18.20;1.00
702;DHT22;334;48.808;9.222;2022-09-13T03:53:03;18.20;1.00
702;DHT22;334;48.808;9.222;2022-09-13T03:54:23;18.20;1.00
702;DHT22;334;48.808;9.222;2022-09-13T03:55:28;18.30;1.00
702;DHT22;334;48.808;9.222;2022-09-13T03:56:31;18.30;1.00
702;DHT22;334;48.808;9.222;2022-09-13T03:57:32;18.30;1.00
702;DHT22;334;48.808;9.222;2022-09-13T03:58:34;18.30;1.00
702;DHT22;334;48.808;9.222;2022-09-13T03:59:39;18.30;1.00
702;DHT22;334;48.808;9.222;2022-09-13T04:00:42;18.30;1.00
702;DHT22;334;48.808;9.222;2022-09-13T04:01:45;18.30;1.00
702;DHT22;334;48.808;9.222;2022-09-13T04:02:47;18.40;1.00
702;DHT22;334;48.808;9.222;2022-09-13T04:03:49;18.40;1.00
702;DHT22;334;48.808;9.222;2022-09-13T04:04:57;18.40;1.00
702;DHT22;334;48.808;9.222;2022-09-13T04:05:58;18.40;1.00
702;DHT22;334;48.808;9.222;2022-09-13T04:07:00;18.40;1.00
702;DHT22;334;48.808;9.222;2022-09-13T04:08:05;18.40;1.00
702;DHT22;334;48.808;9.222;2022-09-13T04:09:08;18.40;1.00
702;DHT22;334;48.808;9.222;2022-09-13T04:10:09;18.30;1.00
702;DHT22;334;48.808;9.222;2022-09-13T04:11:14;18.20;1.00
702;DHT22;334;48.808;9.222;2022-09-13T04:12:17;18.20;1.00
702;DHT22;334;48.808;9.222;2022-09-13T04:13:19;18.20;1.00
702;DHT22;334;48.808;9.222;2022-09-13T04:14:23;18.10;1.00
702;DHT22;334;48.808;9.222;2022-09-13T04:15:28;18.10;1.00
702;DHT22;334;48.808;9.222;2022-09-13T04:16:31;18.00;1.00
702;DHT22;334;48.808;9.222;2022-09-13T04:17:33;18.00;1.00
702;DHT22;334;48.808;9.222;2022-09-13T04:18:35;18.00;1.00
702;DHT22;334;48.808;9.222;2022-09-13T04:19:37;18.00;1.00
702;DHT22;334;48.808;9.222;2022-09-13T04:20:38;18.00;1.00
702;DHT22;334;48.808;9.222;2022-09-13T04:21:40;18.00;1.00
702;DHT22;334;48.808;9.222;2022-09-13T04:22:42;18.00;1.00
702;DHT22;334;48.808;9.222;2022-09-13T04:23:49;18.00;1.00
702;DHT22;334;48.808;9.222;2022-09-13T04:24:50;18.00;1.30
702;DHT22;334;48.808;9.222;2022-09-13T04:25:53;18.00;1.00
702;DHT22;334;48.808;9.222;2022-09-13T04:26:55;18.00;1.30
702;DHT22;334;48.808;9.222;2022-09-13T04:27:57;18.00;1.30
702;DHT22;334;48.808;9.222;2022-09-13T04:29:02;18.00;1.20
702;DHT22;334;48.808;9.222;2022-09-13T04:30:04;18.00;1.50
702;DHT22;334;48.808;9.222;2022-09-13T04:31:06;18.00;1.60
702;DHT22;334;48.808;9.222;2022-09-13T04:32:08;18.00;1.70
702;DHT22;334;48.808;9.222;2022-09-13T04:33:12;17.90;1.90
702;DHT22;334;48.808;9.222;2022-09-13T04:34:14;17.90;2.20
702;DHT22;334;48.808;9.222;2022-09-13T04:35:17;17.90;2.00
702;DHT22;334;48.808;9.222;2022-09-13T04:36:20;17.90;2.30
702;DHT22;334;48.808;9.222;2022-09-13T04:37:23;17.90;2.30
702;DHT22;334;48.808;9.222;2022-09-13T04:38:25;17.90;2.30
702;DHT22;334;48.808;9.222;2022-09-13T04:39:27;17.90;2.20
702;DHT22;334;48.808;9.222;2022-09-13T04:40:28;17.90;2.00
702;DHT22;334;48.808;9.222;2022-09-13T04:41:30;17.90;1.90
702;DHT22;334;48.808;9.222;2022-09-13T04:42:35;17.90;1.80
702;DHT22;334;48.808;9.222;2022-09-13T04:43:36;18.00;1.80
702;DHT22;334;48.808;9.222;2022-09-13T04:44:38;18.00;1.70
702;DHT22;334;48.808;9.222;2022-09-13T04:45:40;18.00;1.70
702;DHT22;334;48.808;9.222;2022-09-13T04:46:42;18.00;1.70
702;DHT22;334;48.808;9.222;2022-09-13T04:47:50;18.00;1.70
702;DHT22;334;48.808;9.222;2022-09-13T04:48:52;18.00;2.00
702;DHT22;334;48.808;9.222;2022-09-13T04:49:54;18.10;1.80
702;DHT22;334;48.808;9.222;2022-09-13T04:51:03;18.10;1.50
702;DHT22;334;48.808;9.222;2022-09-13T04:52:07;18.10;1.80
702;DHT22;334;48.808;9.222;2022-09-13T04:53:09;18.10;1.40
702;DHT22;334;48.808;9.222;2022-09-13T04:54:11;18.10;1.30
702;DHT22;334;48.808;9.222;2022-09-13T04:55:16;18.10;1.20
702;DHT22;334;48.808;9.222;2022-09-13T04:56:18;18.10;1.40
702;DHT22;334;48.808;9.222;2022-09-13T04:57:20;18.10;1.30
702;DHT22;334;48.808;9.222;2022-09-13T04:58:22;18.10;1.30
702;DHT22;334;48.808;9.222;2022-09-13T04:59:23;18.10;1.50
702;DHT22;334;48.808;9.222;2022-09-13T05:00:25;18.10;1.60
702;DHT22;334;48.808;9.222;2022-09-13T05:01:29;18.10;1.50
702;DHT22;334;48.808;9.222;2022-09-13T05:02:31;18.10;1.70
702;DHT22;334;48.808;9.222;2022-09-13T05:03:33;18.10;1.50
702;DHT22;334;48.808;9.222;2022-09-13T05:04:35;18.10;1.50
702;DHT22;334;48.808;9.222;2022-09-13T05:05:37;18.10;1.50
702;DHT22;334;48.808;9.222;2022-09-13T05:06:39;18.00;1.50
702;DHT22;334;48.808;9.222;2022-09-13T05:07:40;18.10;1.50
702;DHT22;334;48.808;9.222;2022-09-13T05:08:42;18.00;1.60
702;DHT22;334;48.808;9.222;2022-09-13T05:09:45;18.00;1.90
702;DHT22;334;48.808;9.222;2022-09-13T05:10:47;17.90;1.90
702;DHT22;334;48.808;9.222;2022-09-13T05:11:49;17.90;1.90
702;DHT22;334;48.808;9.222;2022-09-13T05:12:51;17.90;1.90
702;DHT22;334;48.808;9.222;2022-09-13T05:13:56;17.90;2.30
702;DHT22;334;48.808;9.222;2022-09-13T05:14:58;17.90;2.30
702;DHT22;334;48.808;9.222;2022-09-13T05:16:03;17.90;2.30
702;DHT22;334;48.808;9.222;2022-09-13T05:17:06;17.90;2.30
702;DHT22;334;48.808;9.222;2022-09-13T05:18:07;17.90;2.50
702;DHT22;334;48.808;9.222;2022-09-13T05:19:11;17.90;2.60
702;DHT22;334;48.808;9.222;2022-09-13T05:20:12;17.90;3.00
702;DHT22;334;48.808;9.222;2022-09-13T05:21:14;17.80;3.00
702;DHT22;334;48.808;9.222;2022-09-13T05:22:17;17.80;2.90
702;DHT22;334;48.808;9.222;2022-09-13T05:23:19;17.80;3.20
702;DHT22;334;48.808;9.222;2022-09-13T05:24:21;17.80;3.30
702;DHT22;334;48.808;9.222;2022-09-13T05:25:23;17.80;3.20
702;DHT22;334;48.808;9.222;2022-09-13T05:26:27;17.80;3.30
702;DHT22;334;48.808;9.222;2022-09-13T05:27:32;17.90;3.40
702;DHT22;334;48.808;9.222;2022-09-13T05:28:35;17.80;3.30
702;DHT22;334;48.808;9.222;2022-09-13T05:29:37;17.80;3.30
702;DHT22;334;48.808;9.222;2022-09-13T05:30:39;17.80;3.30
702;DHT22;334;48.808;9.222;2022-09-13T05:31:43;17.80;3.10
702;DHT22;334;48.808;9.222;2022-09-13T05:32:44;17.80;3.40
702;DHT22;334;48.808;9.222;2022-09-13T05:33:51;17.80;3.70
702;DHT22;334;48.808;9.222;2022-09-13T05:34:52;17.80;3.30
702;DHT22;334;48.808;9.222;2022-09-13T05:35:55;17.80;3.50
702;DHT22;334;48.808;9.222;2022-09-13T05:36:57;17.80;3.60
702;DHT22;334;48.808;9.222;2022-09-13T05:38:00;17.80;3.70
702;DHT22;334;48.808;9.222;2022-09-13T05:39:04;17.80;3.80
702;DHT22;334;48.808;9.222;2022-09-13T05:40:25;17.80;3.90
702;DHT22;334;48.808;9.222;2022-09-13T05:41:27;17.80;3.70
702;DHT22;334;48.808;9.222;2022-09-13T05:42:29;17.80;4.40
702;DHT22;334;48.808;9.222;2022-09-13T05:43:33;17.70;4.00
702;DHT22;334;48.808;9.222;2022-09-13T05:44:35;17.80;4.10
702;DHT22;334;48.808;9.222;2022-09-13T05:45:40;17.80;3.90
702;DHT22;334;48.808;9.222;2022-09-13T05:46:45;17.80;4.00
702;DHT22;334;48.808;9.222;2022-09-13T05:47:50;17.80;4.10
702;DHT22;334;48.808;9.222;2022-09-13T05:48:57;17.80;3.80
702;DHT22;334;48.808;9.222;2022-09-13T05:50:00;17.80;3.90
702;DHT22;334;48.808;9.222;2022-09-13T05:51:21;17.90;3.80
702;DHT22;334;48.808;9.222;2022-09-13T05:52:22;17.90;3.90
702;DHT22;334;48.808;9.222;2022-09-13T05:53:25;17.90;3.70
702;DHT22;334;48.808;9.222;2022-09-13T05:54:27;17.80;3.60
702;DHT22;334;48.808;9.222;2022-09-13T05:55:28;17.80;3.80
702;DHT22;334;48.808;9.222;2022-09-13T05:56:31;17.80;3.70
702;DHT22;334;48.808;9.222;2022-09-13T05:57:33;17.80;3.80
702;DHT22;334;48.808;9.222;2022-09-13T05:58:38;17.80;3.80
702;DHT22;334;48.808;9.222;2022-09-13T05:59:41;17.80;3.90
702;DHT22;334;48.808;9.222;2022-09-13T06:00:42;17.80;3.60
702;DHT22;334;48.808;9.222;2022-09-13T06:01:44;17.80;3.60
702;DHT22;334;48.808;9.222;2022-09-13T06:02:46;17.80;3.70
702;DHT22;334;48.808;9.222;2022-09-13T06:03:49;17.80;3.80
702;DHT22;334;48.808;9.222;2022-09-13T06:04:51;17.80;4.00
702;DHT22;334;48.808;9.222;2022-09-13T06:05:57;17.80;4.10
702;DHT22;334;48.808;9.222;2022-09-13T06:06:59;17.80;4.20
702;DHT22;334;48.808;9.222;2022-09-13T06:08:02;17.80;4.00
702;DHT22;334;48.808;9.222;2022-09-13T06:09:04;17.80;4.20
702;DHT22;334;48.808;9.222;2022-09-13T06:10:09;17.80;4.20
702;DHT22;334;48.808;9.222;2022-09-13T06:11:13;17.80;4.20
702;DHT22;334;48.808;9.222;2022-09-13T06:12:16;17.80;4.20
702;DHT22;334;48.808;9.222;2022-09-13T06:13:17;17.90;4.30
702;DHT22;334;48.808;9.222;2022-09-13T06:14:19;17.90;4.30
702;DHT22;334;48.808;9.222;2022-09-13T06:15:21;17.90;4.20
702;DHT22;334;48.808;9.222;2022-09-13T06:16:23;17.90;4.30
702;DHT22;334;48.808;9.222;2022-09-13T06:17:24;18.00;4.20
702;DHT22;334;48.808;9.222;2022-09-13T06:18:27;18.00;4.10
702;DHT22;334;48.808;9.222;2022-09-13T06:19:28;18.00;4.00
702;DHT22;334;48.808;9.222;2022-09-13T06:20:30;18.00;4.00
702;DHT22;334;48.808;9.222;2022-09-13T06:21:32;18.00;3.90
702;DHT22;334;48.808;9.222;2022-09-13T06:22:34;18.00;3.90
702;DHT22;334;48.808;9.222;2022-09-13T06:23:37;18.10;3.90
702;DHT22;334;48.808;9.222;2022-09-13T06:24:39;18.10;3.70
702;DHT22;334;48.808;9.222;2022-09-13T06:25:41;18.10;3.70
702;DHT22;334;48.808;9.222;2022-09-13T06:26:43;18.10;3.60
702;DHT22;334;48.808;9.222;2022-09-13T06:27:47;18.10;3.50
702;DHT22;334;48.808;9.222;2022-09-13T06:28:52;18.10;3.50
702;DHT22;334;48.808;9.222;2022-09-13T06:29:55;18.10;3.30
702;DHT22;334;48.808;9.222;2022-09-13T06:31:19;18.10;3.30
702;DHT22;334;48.808;9.222;2022-09-13T06:32:21;18.10;3.40
702;DHT22;334;48.808;9.222;2022-09-13T06:33:23;18.10;3.20
702;DHT22;334;48.808;9.222;2022-09-13T06:34:25;18.10;3.00
702;DHT22;334;48.808;9.222;2022-09-13T06:35:31;18.10;3.00
702;DHT22;334;48.808;9.222;2022-09-13T06:36:33;18.10;3.00
702;DHT22;334;48.808;9.222;2022-09-13T06:37:35;18.10;3.30
702;DHT22;334;48.808;9.222;2022-09-13T06:38:40;18.10;3.20
702;DHT22;334;48.808;9.222;2022-09-13T06:39:42;18.10;3.40
702;DHT22;334;48.808;9.222;2022-09-13T06:40:44;18.10;3.30
702;DHT22;334;48.808;9.222;2022-09-13T06:41:46;18.10;3.30
702;DHT22;334;48.808;9.222;2022-09-13T06:42:48;18.10;3.40
702;DHT22;334;48.808;9.222;2022-09-13T06:43:58;18.00;3.40
702;DHT22;334;48.808;9.222;2022-09-13T06:45:00;18.00;3.60
702;DHT22;334;48.808;9.222;2022-09-13T06:47:07;18.00;3.60
702;DHT22;334;48.808;9.222;2022-09-13T06:48:08;18.00;3.50
702;DHT22;334;48.808;9.222;2022-09-13T06:49:10;18.00;3.60
702;DHT22;334;48.808;9.222;2022-09-13T06:50:12;18.00;3.80
702;DHT22;334;48.808;9.222;2022-09-13T06:51:17;18.00;3.70
702;DHT22;334;48.808;9.222;2022-09-13T06:52:19;18.00;4.00
702;DHT22;334;48.808;9.222;2022-09-13T06:53:21;18.00;3.70
702;DHT22;334;48.808;9.222;2022-09-13T06:54:23;18.00;3.90
702;DHT22;334;48.808;9.222;2022-09-13T06:55:36;18.00;3.80
702;DHT22;334;48.808;9.222;2022-09-13T06:56:38;18.00;4.10
702;DHT22;334;48.808;9.222;2022-09-13T06:57:40;18.00;4.00
702;DHT22;334;48.808;9.222;2022-09-13T06:58:43;18.00;4.00
702;DHT22;334;48.808;9.222;2022-09-13T06:59:45;18.00;3.80
702;DHT22;334;48.808;9.222;2022-09-13T07:00:47;18.10;3.70
702;DHT22;334;48.808;9.222;2022-09-13T07:01:55;18.10;4.00
702;DHT22;334;48.808;9.222;2022-09-13T07:02:57;18.10;4.10
702;DHT22;334;48.808;9.222;2022-09-13T07:04:10;18.10;4.00
702;DHT22;334;48.808;9.222;2022-09-13T07:05:12;18.10;4.00
702;DHT22;334;48.808;9.222;2022-09-13T07:06:18;18.10;3.90
702;DHT22;334;48.808;9.222;2022-09-13T07:07:23;18.10;4.00
702;DHT22;334;48.808;9.222;2022-09-13T07:08:25;18.20;4.10
702;DHT22;334;48.808;9.222;2022-09-13T07:09:27;18.10;3.90
702;DHT22;334;48.808;9.222;2022-09-13T07:10:28;18.20;4.00
702;DHT22;334;48.808;9.222;2022-09-13T07:11:33;18.20;4.10
702;DHT22;334;48.808;9.222;2022-09-13T07:12:35;18.20;4.30
702;DHT22;334;48.808;9.222;2022-09-13T07:13:38;18.20;4.10
702;DHT22;334;48.808;9.222;2022-09-13T07:14:39;18.20;3.60
702;DHT22;334;48.808;9.222;2022-09-13T07:15:41;18.30;3.50
702;DHT22;334;48.808;9.222;2022-09-13T07:16:44;18.40;3.40
702;DHT22;334;48.808;9.222;2022-09-13T07:17:46;18.40;3.20
702;DHT22;334;48.808;9.222;2022-09-13T07:18:58;18.40;3.00
702;DHT22;334;48.808;9.222;2022-09-13T07:20:00;18.40;2.80
702;DHT22;334;48.808;9.222;2022-09-13T07:21:07;18.40;2.70
702;DHT22;334;48.808;9.222;2022-09-13T07:22:10;18.40;2.70
702;DHT22;334;48.808;9.222;2022-09-13T07:23:12;18.40;2.70
702;DHT22;334;48.808;9.222;2022-09-13T07:24:16;18.50;2.70
702;DHT22;334;48.808;9.222;2022-09-13T07:25:18;18.50;2.70
702;DHT22;334;48.808;9.222;2022-09-13T07:26:20;18.50;2.70
702;DHT22;334;48.808;9.222;2022-09-13T07:27:22;18.50;2.60
702;DHT22;334;48.808;9.222;2022-09-13T07:28:24;18.50;2.90
702;DHT22;334;48.808;9.222;2022-09-13T07:29:28;18.60;2.30
702;DHT22;334;48.808;9.222;2022-09-13T07:30:30;18.60;2.20
702;DHT22;334;48.808;9.222;2022-09-13T07:31:35;18.70;2.10
702;DHT22;334;48.808;9.222;2022-09-13T07:32:37;18.70;1.90
702;DHT22;334;48.808;9.222;2022-09-13T07:33:41;18.80;1.70
702;DHT22;334;48.808;9.222;2022-09-13T07:34:44;18.80;1.80
702;DHT22;334;48.808;9.222;2022-09-13T07:35:53;18.80;1.80
702;DHT22;334;48.808;9.222;2022-09-13T07:37:02;18.90;1.60
702;DHT22;334;48.808;9.222;2022-09-13T07:38:06;18.90;1.30
702;DHT22;334;48.808;9.222;2022-09-13T07:39:08;18.90;1.50
702;DHT22;334;48.808;9.222;2022-09-13T07:40:17;19.00;1.10
702;DHT22;334;48.808;9.222;2022-09-13T07:41:21;19.00;1.00
702;DHT22;334;48.808;9.222;2022-09-13T07:42:23;19.10;1.00
702;DHT22;334;48.808;9.222;2022-09-13T07:43:25;19.10;1.00
702;DHT22;334;48.808;9.222;2022-09-13T07:44:27;19.10;1.00
702;DHT22;334;48.808;9.222;2022-09-13T07:45:28;19.20;1.00
702;DHT22;334;48.808;9.222;2022-09-13T07:46:31;19.20;1.00
702;DHT22;334;48.808;9.222;2022-09-13T07:47:34;19.20;1.00
702;DHT22;334;48.808;9.222;2022-09-13T07:48:38;19.30;1.00
702;DHT22;334;48.808;9.222;2022-09-13T07:49:40;19.30;1.00
702;DHT22;334;48.808;9.222;2022-09-13T07:50:42;19.30;1.00
702;DHT22;334;48.808;9.222;2022-09-13T07:51:44;19.30;1.00
702;DHT22;334;48.808;9.222;2022-09-13T07:52:47;19.40;1.00
702;DHT22;334;48.808;9.222;2022-09-13T07:53:51;19.40;1.00
702;DHT22;334;48.808;9.222;2022-09-13T07:55:30;19.40;1.00
702;DHT22;334;48.808;9.222;2022-09-13T07:56:40;19.50;1.00
702;DHT22;334;48.808;9.222;2022-09-13T07:57:42;19.50;1.00
702;DHT22;334;48.808;9.222;2022-09-13T07:58:47;19.60;1.00
702;DHT22;334;48.808;9.222;2022-09-13T07:59:52;19.60;1.00
702;DHT22;334;48.808;9.222;2022-09-13T08:01:03;19.70;1.00
702;DHT22;334;48.808;9.222;2022-09-13T08:02:08;19.90;1.00
702;DHT22;334;48.808;9.222;2022-09-13T08:03:11;19.80;1.00
702;DHT22;334;48.808;9.222;2022-09-13T08:04:18;19.90;1.00
702;DHT22;334;48.808;9.222;2022-09-13T08:05:20;19.90;1.00
702;DHT22;334;48.808;9.222;2022-09-13T08:06:23;19.90;1.00
702;DHT22;334;48.808;9.222;2022-09-13T08:07:25;19.90;1.00
702;DHT22;334;48.808;9.222;2022-09-13T08:08:30;19.90;1.00
702;DHT22;334;48.808;9.222;2022-09-13T08:09:32;19.90;1.00
702;DHT22;334;48.808;9.222;2022-09-13T08:10:35;20.00;1.00
702;DHT22;334;48.808;9.222;2022-09-13T08:11:43;20.00;1.00
702;DHT22;334;48.808;9.222;2022-09-13T08:12:45;20.00;1.00
702;DHT22;334;48.808;9.222;2022-09-13T08:13:47;20.10;1.00
702;DHT22;334;48.808;9.222;2022-09-13T08:14:49;20.10;1.00
702;DHT22;334;48.808;9.222;2022-09-13T08:15:56;20.20;1.00
702;DHT22;334;48.808;9.222;2022-09-13T08:16:58;20.20;1.00
702;DHT22;334;48.808;9.222;2022-09-13T08:18:00;20.30;1.00
702;DHT22;334;48.808;9.222;2022-09-13T08:19:03;20.30;1.00